sensor_id;sensor_type;location;lat;lon;timestamp;pressure;altitude;pressure_sealevel;temperature;humidity
73551;BME280;61816;53.582;10.096;2023-03-01T00:01:23;54331.75;;;-144.73;82.48
73551;BME280;61816;53.582;10.096;2023-03-01T00:03:49;54329.72;;;-144.73;82.79
73551;BME280;61816;53.582;10.096;2023-03-01T00:06:15;54411.81;;;-144.73;82.56
73551;BME280;61816;53.582;10.096;2023-03-01T00:08:41;54366.66;;;-144.73;82.04
73551;BME280;61816;53.582;10.096;2023-03-01T00:11:10;54354.34;;;-144.73;82.62
73551;BME280;61816;53.582;10.096;2023-03-01T00:13:36;54335.88;;;-144.73;82.86
73551;BME280;61816;53.582;10.096;2023-03-01T00:16:08;54393.34;;;-144.73;82.70
73551;BME280;61816;53.582;10.096;2023-03-01T00:18:34;54321.50;;;-144.73;82.84
73551;BME280;61816;53.582;10.096;2023-03-01T00:20:59;54391.28;;;-144.73;82.38
73551;BME280;61816;53.582;10.096;2023-03-01T00:23:25;54350.22;;;-144.73;84.44
73551;BME280;61816;53.582;10.096;2023-03-01T00:25:51;54358.44;;;-144.73;85.87
73551;BME280;61816;53.582;10.096;2023-03-01T00:28:17;54356.38;;;-144.73;85.00
73551;BME280;61816;53.582;10.096;2023-03-01T00:30:44;54360.50;;;-144.73;84.41
73551;BME280;61816;53.582;10.096;2023-03-01T00:33:10;54350.22;;;-144.73;87.47
73551;BME280;61816;53.582;10.096;2023-03-01T00:35:35;54362.53;;;-144.73;86.70
73551;BME280;61816;53.582;10.096;2023-03-01T00:38:01;54362.53;;;-144.73;88.16
73551;BME280;61816;53.582;10.096;2023-03-01T00:40:28;54358.44;;;-144.73;88.69
73551;BME280;61816;53.582;10.096;2023-03-01T00:42:57;54350.22;;;-144.73;88.20
73551;BME280;61816;53.582;10.096;2023-03-01T00:45:23;54358.44;;;-144.73;86.74
73551;BME280;61816;53.582;10.096;2023-03-01T00:47:49;54385.13;;;-144.73;86.43
73551;BME280;61816;53.582;10.096;2023-03-01T00:50:15;54337.91;;;-144.73;86.17
73551;BME280;61816;53.582;10.096;2023-03-01T00:52:40;54391.28;;;-144.73;85.91
73551;BME280;61816;53.582;10.096;2023-03-01T00:55:06;54329.72;;;-144.73;86.29
73551;BME280;61816;53.582;10.096;2023-03-01T00:57:32;54374.84;;;-144.73;86.31
73551;BME280;61816;53.582;10.096;2023-03-01T00:59:57;54407.69;;;-144.73;85.45
73551;BME280;61816;53.582;10.096;2023-03-01T01:02:23;54378.97;;;-144.73;85.26
73551;BME280;61816;53.582;10.096;2023-03-01T01:04:48;54350.22;;;-144.73;84.88
73551;BME280;61816;53.582;10.096;2023-03-01T01:07:14;54366.66;;;-144.73;84.40
73551;BME280;61816;53.582;10.096;2023-03-01T01:09:40;54374.84;;;-144.73;86.88
73551;BME280;61816;53.582;10.096;2023-03-01T01:12:05;54378.97;;;-144.73;86.59
73551;BME280;61816;53.582;10.096;2023-03-01T01:14:31;54407.69;;;-144.73;85.62
73551;BME280;61816;53.582;10.096;2023-03-01T01:16:56;54358.44;;;-144.73;84.83
73551;BME280;61816;53.582;10.096;2023-03-01T01:19:22;54350.22;;;-144.73;84.63
73551;BME280;61816;53.582;10.096;2023-03-01T01:21:48;54325.59;;;-144.73;83.85
73551;BME280;61816;53.582;10.096;2023-03-01T01:24:14;54370.75;;;-144.73;83.68
73551;BME280;61816;53.582;10.096;2023-03-01T01:26:40;54346.13;;;-144.73;84.33
73551;BME280;61816;53.582;10.096;2023-03-01T01:29:06;54354.34;;;-144.73;84.54
73551;BME280;61816;53.582;10.096;2023-03-01T01:31:33;54342.03;;;-144.73;84.65
73551;BME280;61816;53.582;10.096;2023-03-01T01:34:00;54383.06;;;-144.73;85.32
73551;BME280;61816;53.582;10.096;2023-03-01T01:36:25;54387.19;;;-144.73;85.25
73551;BME280;61816;53.582;10.096;2023-03-01T01:38:51;54358.44;;;-144.73;86.81
73551;BME280;61816;53.582;10.096;2023-03-01T01:41:17;54362.53;;;-144.73;87.14
73551;BME280;61816;53.582;10.096;2023-03-01T01:43:46;54325.59;;;-144.73;87.93
73551;BME280;61816;53.582;10.096;2023-03-01T01:46:28;54368.69;;;-144.73;87.83
73551;BME280;61816;53.582;10.096;2023-03-01T01:49:16;54360.50;;;-144.73;87.88
73551;BME280;61816;53.582;10.096;2023-03-01T01:51:44;54309.19;;;-144.73;87.16
73551;BME280;61816;53.582;10.096;2023-03-01T01:54:19;54342.03;;;-144.73;87.08
73551;BME280;61816;53.582;10.096;2023-03-01T01:56:53;54333.81;;;-144.73;86.32
73551;BME280;61816;53.582;10.096;2023-03-01T01:59:20;54366.66;;;-144.73;85.90
73551;BME280;61816;53.582;10.096;2023-03-01T02:01:50;54366.66;;;-144.73;85.84
73551;BME280;61816;53.582;10.096;2023-03-01T02:04:16;54395.38;;;-144.73;86.00
73551;BME280;61816;53.582;10.096;2023-03-01T02:06:53;54337.91;;;-144.73;85.87
73551;BME280;61816;53.582;10.096;2023-03-01T02:09:23;54391.28;;;-144.73;85.56
73551;BME280;61816;53.582;10.096;2023-03-01T02:11:48;54346.13;;;-144.73;85.93
73551;BME280;61816;53.582;10.096;2023-03-01T02:14:16;54383.06;;;-144.73;85.04
73551;BME280;61816;53.582;10.096;2023-03-01T02:16:42;54372.81;;;-144.73;84.48
73551;BME280;61816;53.582;10.096;2023-03-01T02:19:14;54325.59;;;-144.73;84.60
73551;BME280;61816;53.582;10.096;2023-03-01T02:22:01;54354.34;;;-144.73;84.41
73551;BME280;61816;53.582;10.096;2023-03-01T02:24:47;54354.34;;;-144.73;85.17
73551;BME280;61816;53.582;10.096;2023-03-01T02:27:19;54366.66;;;-144.73;84.83
73551;BME280;61816;53.582;10.096;2023-03-01T02:29:47;54342.03;;;-144.73;83.93
73551;BME280;61816;53.582;10.096;2023-03-01T02:32:13;54374.84;;;-144.73;83.84
73551;BME280;61816;53.582;10.096;2023-03-01T02:34:40;54358.44;;;-144.73;83.94
73551;BME280;61816;53.582;10.096;2023-03-01T02:37:13;54395.38;;;-144.73;84.02
73551;BME280;61816;53.582;10.096;2023-03-01T02:39:45;54354.34;;;-144.73;83.78
73551;BME280;61816;53.582;10.096;2023-03-01T02:42:15;54391.28;;;-144.73;83.43
73551;BME280;61816;53.582;10.096;2023-03-01T02:44:42;54342.03;;;-144.73;84.96
73551;BME280;61816;53.582;10.096;2023-03-01T02:47:07;54366.66;;;-144.73;84.32
73551;BME280;61816;53.582;10.096;2023-03-01T02:49:35;54337.91;;;-144.73;84.01
73551;BME280;61816;53.582;10.096;2023-03-01T02:52:12;54337.91;;;-144.73;84.22
73551;BME280;61816;53.582;10.096;2023-03-01T02:57:26;54346.13;;;-144.73;83.75
73551;BME280;61816;53.582;10.096;2023-03-01T02:59:54;54381.00;;;-144.73;83.34
73551;BME280;61816;53.582;10.096;2023-03-01T03:02:22;54333.81;;;-144.73;83.10
73551;BME280;61816;53.582;10.096;2023-03-01T03:05:25;54358.44;;;-144.73;83.90
73551;BME280;61816;53.582;10.096;2023-03-01T03:07:51;54329.72;;;-144.73;83.51
73551;BME280;61816;53.582;10.096;2023-03-01T03:10:24;54391.28;;;-144.73;83.01
73551;BME280;61816;53.582;10.096;2023-03-01T03:12:53;54329.72;;;-144.73;83.15
73551;BME280;61816;53.582;10.096;2023-03-01T03:15:20;54335.88;;;-144.73;83.30
73551;BME280;61816;53.582;10.096;2023-03-01T03:17:46;54358.44;;;-144.73;83.65
73551;BME280;61816;53.582;10.096;2023-03-01T03:20:14;54362.53;;;-144.73;84.10
73551;BME280;61816;53.582;10.096;2023-03-01T03:22:45;54366.66;;;-144.73;86.58
73551;BME280;61816;53.582;10.096;2023-03-01T03:25:11;54362.53;;;-144.73;85.83
73551;BME280;61816;53.582;10.096;2023-03-01T03:27:41;54387.19;;;-144.73;85.17
73551;BME280;61816;53.582;10.096;2023-03-01T03:30:09;54346.13;;;-144.73;84.74
73551;BME280;61816;53.582;10.096;2023-03-01T03:32:38;54327.66;;;-144.73;84.53
73551;BME280;61816;53.582;10.096;2023-03-01T03:35:04;54374.84;;;-144.73;84.03
73551;BME280;61816;53.582;10.096;2023-03-01T03:37:39;54370.75;;;-144.73;83.92
73551;BME280;61816;53.582;10.096;2023-03-01T03:40:24;54374.84;;;-144.73;84.35
73551;BME280;61816;53.582;10.096;2023-03-01T03:42:49;54391.28;;;-144.73;84.22
73551;BME280;61816;53.582;10.096;2023-03-01T03:45:16;54337.91;;;-144.73;83.94
73551;BME280;61816;53.582;10.096;2023-03-01T03:47:42;54370.75;;;-144.73;84.71
73551;BME280;61816;53.582;10.096;2023-03-01T03:50:09;54391.28;;;-144.73;83.99
73551;BME280;61816;53.582;10.096;2023-03-01T03:52:35;54346.13;;;-144.73;83.63
73551;BME280;61816;53.582;10.096;2023-03-01T03:55:00;54350.22;;;-144.73;83.48
73551;BME280;61816;53.582;10.096;2023-03-01T03:57:26;54337.91;;;-144.73;83.88
73551;BME280;61816;53.582;10.096;2023-03-01T03:59:51;54391.28;;;-144.73;83.75
73551;BME280;61816;53.582;10.096;2023-03-01T04:02:16;54350.22;;;-144.73;84.38
73551;BME280;61816;53.582;10.096;2023-03-01T04:04:48;54387.19;;;-144.73;84.47
73551;BME280;61816;53.582;10.096;2023-03-01T04:07:15;54354.34;;;-144.73;83.92
73551;BME280;61816;53.582;10.096;2023-03-01T04:09:42;54339.97;;;-144.73;83.94
73551;BME280;61816;53.582;10.096;2023-03-01T04:12:08;54354.34;;;-144.73;82.97
73551;BME280;61816;53.582;10.096;2023-03-01T04:14:33;54391.28;;;-144.73;83.05
73551;BME280;61816;53.582;10.096;2023-03-01T04:16:58;54346.13;;;-144.73;82.80
73551;BME280;61816;53.582;10.096;2023-03-01T04:19:24;54378.97;;;-144.73;82.29
73551;BME280;61816;53.582;10.096;2023-03-01T04:21:49;54348.19;;;-144.73;82.27
73551;BME280;61816;53.582;10.096;2023-03-01T04:24:15;54395.38;;;-144.73;82.70
73551;BME280;61816;53.582;10.096;2023-03-01T04:26:40;54362.53;;;-144.73;82.29
73551;BME280;61816;53.582;10.096;2023-03-01T04:29:06;54374.84;;;-144.73;82.50
73551;BME280;61816;53.582;10.096;2023-03-01T04:31:31;54346.13;;;-144.73;83.60
73551;BME280;61816;53.582;10.096;2023-03-01T04:33:57;54354.34;;;-144.73;83.31
73551;BME280;61816;53.582;10.096;2023-03-01T04:36:24;54374.84;;;-144.73;82.51
73551;BME280;61816;53.582;10.096;2023-03-01T04:38:50;54337.91;;;-144.73;81.81
73551;BME280;61816;53.582;10.096;2023-03-01T04:41:18;54395.38;;;-144.73;81.85
73551;BME280;61816;53.582;10.096;2023-03-01T04:43:44;54366.66;;;-144.73;81.53
73551;BME280;61816;53.582;10.096;2023-03-01T04:46:15;54362.53;;;-144.73;81.45
73551;BME280;61816;53.582;10.096;2023-03-01T04:48:41;54385.13;;;-144.73;81.61
73551;BME280;61816;53.582;10.096;2023-03-01T04:51:07;54358.44;;;-144.73;82.25
73551;BME280;61816;53.582;10.096;2023-03-01T04:53:34;54415.91;;;-144.73;81.89
73551;BME280;61816;53.582;10.096;2023-03-01T04:56:01;54362.53;;;-144.73;81.98
73551;BME280;61816;53.582;10.096;2023-03-01T04:58:28;54407.69;;;-144.73;82.10
73551;BME280;61816;53.582;10.096;2023-03-01T05:00:54;54407.69;;;-144.73;82.51
73551;BME280;61816;53.582;10.096;2023-03-01T05:03:20;54354.34;;;-144.73;82.25
73551;BME280;61816;53.582;10.096;2023-03-01T05:05:48;54372.81;;;-144.73;82.07
73551;BME280;61816;53.582;10.096;2023-03-01T05:08:14;54362.53;;;-144.73;81.69
73551;BME280;61816;53.582;10.096;2023-03-01T05:11:01;54387.19;;;-144.73;82.03
73551;BME280;61816;53.582;10.096;2023-03-01T05:13:26;54337.91;;;-144.73;81.81
73551;BME280;61816;53.582;10.096;2023-03-01T05:15:58;54424.13;;;-144.73;81.56
73551;BME280;61816;53.582;10.096;2023-03-01T05:18:24;54358.44;;;-144.73;82.14
73551;BME280;61816;53.582;10.096;2023-03-01T05:21:02;54389.22;;;-144.73;81.94
73551;BME280;61816;53.582;10.096;2023-03-01T05:23:30;54411.81;;;-144.73;81.60
73551;BME280;61816;53.582;10.096;2023-03-01T05:25:58;54350.22;;;-144.73;81.49
73551;BME280;61816;53.582;10.096;2023-03-01T05:28:25;54366.66;;;-144.73;83.34
73551;BME280;61816;53.582;10.096;2023-03-01T05:30:51;54387.19;;;-144.73;84.30
73551;BME280;61816;53.582;10.096;2023-03-01T05:33:16;54366.66;;;-144.73;83.76
73551;BME280;61816;53.582;10.096;2023-03-01T05:35:43;54395.38;;;-144.73;83.70
73551;BME280;61816;53.582;10.096;2023-03-01T05:38:09;54378.97;;;-144.73;82.98
73551;BME280;61816;53.582;10.096;2023-03-01T05:40:38;54366.66;;;-144.73;81.93
73551;BME280;61816;53.582;10.096;2023-03-01T05:43:03;54387.19;;;-144.73;81.84
73551;BME280;61816;53.582;10.096;2023-03-01T05:45:30;54374.84;;;-144.73;81.78
73551;BME280;61816;53.582;10.096;2023-03-01T05:47:57;54378.97;;;-144.73;81.95
73551;BME280;61816;53.582;10.096;2023-03-01T05:50:25;54350.22;;;-144.73;82.84
73551;BME280;61816;53.582;10.096;2023-03-01T05:52:56;54362.53;;;-144.73;82.13
73551;BME280;61816;53.582;10.096;2023-03-01T05:55:22;54387.19;;;-144.73;81.95
73551;BME280;61816;53.582;10.096;2023-03-01T05:57:49;54378.97;;;-144.73;82.03
73551;BME280;61816;53.582;10.096;2023-03-01T06:00:17;54358.44;;;-144.73;80.97
73551;BME280;61816;53.582;10.096;2023-03-01T06:02:43;54362.53;;;-144.73;81.09
73551;BME280;61816;53.582;10.096;2023-03-01T06:05:10;54370.75;;;-144.73;82.16
73551;BME280;61816;53.582;10.096;2023-03-01T06:07:36;54391.28;;;-144.73;81.91
73551;BME280;61816;53.582;10.096;2023-03-01T06:10:03;54378.97;;;-144.73;80.44
73551;BME280;61816;53.582;10.096;2023-03-01T06:12:33;54378.97;;;-144.73;80.18
73551;BME280;61816;53.582;10.096;2023-03-01T06:14:59;54362.53;;;-144.73;81.54
73551;BME280;61816;53.582;10.096;2023-03-01T06:17:25;54370.75;;;-144.73;82.64
73551;BME280;61816;53.582;10.096;2023-03-01T06:19:50;54415.91;;;-144.73;81.42
73551;BME280;61816;53.582;10.096;2023-03-01T06:22:16;54387.19;;;-144.73;81.13
73551;BME280;61816;53.582;10.096;2023-03-01T06:24:41;54385.13;;;-144.73;81.11
73551;BME280;61816;53.582;10.096;2023-03-01T06:27:06;54411.81;;;-144.73;80.22
73551;BME280;61816;53.582;10.096;2023-03-01T06:29:32;54370.75;;;-144.73;80.25
73551;BME280;61816;53.582;10.096;2023-03-01T06:31:57;54399.50;;;-144.73;82.04
73551;BME280;61816;53.582;10.096;2023-03-01T06:34:23;54374.84;;;-144.73;81.36
73551;BME280;61816;53.582;10.096;2023-03-01T06:36:48;54391.28;;;-144.73;80.10
73551;BME280;61816;53.582;10.096;2023-03-01T06:39:13;54395.38;;;-144.73;79.47
73551;BME280;61816;53.582;10.096;2023-03-01T06:41:39;54387.19;;;-144.73;77.45
73551;BME280;61816;53.582;10.096;2023-03-01T06:44:04;54387.19;;;-144.73;77.52
73551;BME280;61816;53.582;10.096;2023-03-01T06:46:29;54346.13;;;-144.73;76.70
73551;BME280;61816;53.582;10.096;2023-03-01T06:48:55;54358.44;;;-144.73;76.60
73551;BME280;61816;53.582;10.096;2023-03-01T06:51:20;54358.44;;;-144.73;75.53
73551;BME280;61816;53.582;10.096;2023-03-01T06:53:46;54329.72;;;-144.73;75.58
73551;BME280;61816;53.582;10.096;2023-03-01T06:56:12;54354.34;;;-144.73;74.72
73551;BME280;61816;53.582;10.096;2023-03-01T06:58:37;54370.75;;;-144.73;74.44
73551;BME280;61816;53.582;10.096;2023-03-01T07:01:06;54354.34;;;-144.73;74.20
73551;BME280;61816;53.582;10.096;2023-03-01T07:03:32;54346.13;;;-144.73;74.08
73551;BME280;61816;53.582;10.096;2023-03-01T07:05:57;54370.75;;;-144.73;73.09
73551;BME280;61816;53.582;10.096;2023-03-01T07:08:22;54395.38;;;-144.73;72.48
73551;BME280;61816;53.582;10.096;2023-03-01T07:10:48;54387.19;;;-144.73;70.76
73551;BME280;61816;53.582;10.096;2023-03-01T07:13:14;54407.69;;;-144.73;70.45
73551;BME280;61816;53.582;10.096;2023-03-01T07:15:40;54317.38;;;-144.73;69.74
73551;BME280;61816;53.582;10.096;2023-03-01T07:18:05;54383.06;;;-144.73;68.72
73551;BME280;61816;53.582;10.096;2023-03-01T07:20:30;54370.75;;;-144.73;68.38
73551;BME280;61816;53.582;10.096;2023-03-01T07:22:56;54358.44;;;-144.73;68.62
73551;BME280;61816;53.582;10.096;2023-03-01T07:25:24;54391.28;;;-144.73;69.23
73551;BME280;61816;53.582;10.096;2023-03-01T07:27:51;54317.38;;;-144.73;68.23
73551;BME280;61816;53.582;10.096;2023-03-01T07:30:16;54366.66;;;-144.73;68.82
73551;BME280;61816;53.582;10.096;2023-03-01T07:32:42;54391.28;;;-144.73;69.20
73551;BME280;61816;53.582;10.096;2023-03-01T07:35:07;54354.34;;;-144.73;69.80
73551;BME280;61816;53.582;10.096;2023-03-01T07:37:33;54346.13;;;-144.73;69.53
73551;BME280;61816;53.582;10.096;2023-03-01T07:39:58;54370.75;;;-144.73;69.82
73551;BME280;61816;53.582;10.096;2023-03-01T07:42:24;54370.75;;;-144.73;69.77
73551;BME280;61816;53.582;10.096;2023-03-01T07:44:49;54374.84;;;-144.73;69.16
73551;BME280;61816;53.582;10.096;2023-03-01T07:47:14;54383.06;;;-144.73;69.30
73551;BME280;61816;53.582;10.096;2023-03-01T07:49:39;54350.22;;;-144.73;68.64
73551;BME280;61816;53.582;10.096;2023-03-01T07:52:05;54350.22;;;-144.73;68.44
73551;BME280;61816;53.582;10.096;2023-03-01T07:54:30;54378.97;;;-144.73;68.60
73551;BME280;61816;53.582;10.096;2023-03-01T07:56:56;54337.91;;;-144.73;68.50
73551;BME280;61816;53.582;10.096;2023-03-01T07:59:22;54305.06;;;-144.73;69.04
73551;BME280;61816;53.582;10.096;2023-03-01T08:01:48;54370.75;;;-144.73;69.42
73551;BME280;61816;53.582;10.096;2023-03-01T08:04:14;54391.28;;;-144.73;70.11
73551;BME280;61816;53.582;10.096;2023-03-01T08:06:39;54352.28;;;-144.73;70.51
73551;BME280;61816;53.582;10.096;2023-03-01T08:09:05;54378.97;;;-144.73;70.71
73551;BME280;61816;53.582;10.096;2023-03-01T08:11:30;54358.44;;;-144.73;71.54
73551;BME280;61816;53.582;10.096;2023-03-01T08:13:55;54354.34;;;-144.73;73.42
73551;BME280;61816;53.582;10.096;2023-03-01T08:16:21;54407.69;;;-144.73;73.29
73551;BME280;61816;53.582;10.096;2023-03-01T08:18:47;54346.13;;;-144.73;73.85
73551;BME280;61816;53.582;10.096;2023-03-01T08:21:15;54374.84;;;-144.73;72.96
73551;BME280;61816;53.582;10.096;2023-03-01T08:23:41;54393.34;;;-144.73;72.84
73551;BME280;61816;53.582;10.096;2023-03-01T08:26:09;54378.97;;;-144.73;72.82
73551;BME280;61816;53.582;10.096;2023-03-01T08:28:35;54362.53;;;-144.73;72.12
73551;BME280;61816;53.582;10.096;2023-03-01T08:31:01;54383.06;;;-144.73;70.90
73551;BME280;61816;53.582;10.096;2023-03-01T08:33:27;54329.72;;;-144.73;71.24
73551;BME280;61816;53.582;10.096;2023-03-01T08:35:52;54391.28;;;-144.73;70.96
73551;BME280;61816;53.582;10.096;2023-03-01T08:38:18;54368.69;;;-144.73;70.68
73551;BME280;61816;53.582;10.096;2023-03-01T08:40:43;54387.19;;;-144.73;70.70
73551;BME280;61816;53.582;10.096;2023-03-01T08:43:08;54350.22;;;-144.73;70.42
73551;BME280;61816;53.582;10.096;2023-03-01T08:45:34;54376.91;;;-144.73;70.38
73551;BME280;61816;53.582;10.096;2023-03-01T08:47:59;54381.00;;;-144.73;70.31
73551;BME280;61816;53.582;10.096;2023-03-01T08:50:26;54395.38;;;-144.73;69.65
73551;BME280;61816;53.582;10.096;2023-03-01T08:52:51;54358.44;;;-144.73;70.20
73551;BME280;61816;53.582;10.096;2023-03-01T08:55:16;54342.03;;;-144.73;70.60
73551;BME280;61816;53.582;10.096;2023-03-01T08:57:43;54374.84;;;-144.73;71.46
73551;BME280;61816;53.582;10.096;2023-03-01T09:00:09;54413.84;;;-144.73;70.22
73551;BME280;61816;53.582;10.096;2023-03-01T09:02:36;54374.84;;;-144.73;69.56
73551;BME280;61816;53.582;10.096;2023-03-01T09:05:03;54387.19;;;-144.73;69.36
73551;BME280;61816;53.582;10.096;2023-03-01T09:07:28;54358.44;;;-144.73;70.25
73551;BME280;61816;53.582;10.096;2023-03-01T09:09:54;54395.38;;;-144.73;70.28
73551;BME280;61816;53.582;10.096;2023-03-01T09:12:20;54358.44;;;-144.73;70.76
73551;BME280;61816;53.582;10.096;2023-03-01T09:14:46;54378.97;;;-144.73;71.47
73551;BME280;61816;53.582;10.096;2023-03-01T09:17:11;54309.19;;;-144.73;72.17
73551;BME280;61816;53.582;10.096;2023-03-01T09:19:37;54354.34;;;-144.73;70.69
73551;BME280;61816;53.582;10.096;2023-03-01T09:22:03;54366.66;;;-144.73;69.97
73551;BME280;61816;53.582;10.096;2023-03-01T09:24:29;54358.44;;;-144.73;69.75
73551;BME280;61816;53.582;10.096;2023-03-01T09:26:55;54342.03;;;-144.73;69.93
73551;BME280;61816;53.582;10.096;2023-03-01T09:29:21;54362.53;;;-144.73;69.60
73551;BME280;61816;53.582;10.096;2023-03-01T09:31:46;54333.81;;;-144.73;69.45
73551;BME280;61816;53.582;10.096;2023-03-01T09:34:11;54378.97;;;-144.73;70.04
73551;BME280;61816;53.582;10.096;2023-03-01T09:36:38;54350.22;;;-144.73;69.48
73551;BME280;61816;53.582;10.096;2023-03-01T09:39:04;54383.06;;;-144.73;69.15
73551;BME280;61816;53.582;10.096;2023-03-01T09:41:43;54383.06;;;-144.73;70.14
73551;BME280;61816;53.582;10.096;2023-03-01T09:44:16;54378.97;;;-144.73;70.54
73551;BME280;61816;53.582;10.096;2023-03-01T09:46:44;54342.03;;;-144.73;70.50
73551;BME280;61816;53.582;10.096;2023-03-01T09:49:15;54354.34;;;-144.73;71.00
73551;BME280;61816;53.582;10.096;2023-03-01T09:51:53;54378.97;;;-144.73;71.21
73551;BME280;61816;53.582;10.096;2023-03-01T09:54:19;54346.13;;;-144.73;71.26
73551;BME280;61816;53.582;10.096;2023-03-01T09:57:01;54366.66;;;-144.73;70.90
73551;BME280;61816;53.582;10.096;2023-03-01T09:59:37;54387.19;;;-144.73;71.25
73551;BME280;61816;53.582;10.096;2023-03-01T10:02:21;54378.97;;;-144.73;71.06
73551;BME280;61816;53.582;10.096;2023-03-01T10:04:55;54321.50;;;-144.73;70.75
73551;BME280;61816;53.582;10.096;2023-03-01T10:10:26;54387.19;;;-144.73;69.62
73551;BME280;61816;53.582;10.096;2023-03-01T10:12:53;54346.13;;;-144.73;70.54
73551;BME280;61816;53.582;10.096;2023-03-01T10:15:25;54395.38;;;-144.73;71.29
73551;BME280;61816;53.582;10.096;2023-03-01T10:18:03;54325.59;;;-144.73;70.71
73551;BME280;61816;53.582;10.096;2023-03-01T10:20:46;54368.69;;;-144.73;70.83
73551;BME280;61816;53.582;10.096;2023-03-01T10:23:14;54383.06;;;-144.73;70.03
73551;BME280;61816;53.582;10.096;2023-03-01T10:25:46;54374.84;;;-144.73;69.18
73551;BME280;61816;53.582;10.096;2023-03-01T10:28:27;54372.81;;;-144.73;69.33
73551;BME280;61816;53.582;10.096;2023-03-01T10:30:57;54366.66;;;-144.73;68.71
73551;BME280;61816;53.582;10.096;2023-03-01T10:33:31;54378.97;;;-144.73;69.81
73551;BME280;61816;53.582;10.096;2023-03-01T10:35:57;54407.69;;;-144.73;69.45
73551;BME280;61816;53.582;10.096;2023-03-01T10:38:23;54370.75;;;-144.73;69.32
73551;BME280;61816;53.582;10.096;2023-03-01T10:41:00;54407.69;;;-144.73;70.56
73551;BME280;61816;53.582;10.096;2023-03-01T10:43:52;54374.84;;;-144.73;70.28
73551;BME280;61816;53.582;10.096;2023-03-01T10:46:29;54366.66;;;-144.73;70.66
73551;BME280;61816;53.582;10.096;2023-03-01T10:51:32;54358.44;;;-144.73;70.77
73551;BME280;61816;53.582;10.096;2023-03-01T10:53:58;54407.69;;;-144.73;70.92
73551;BME280;61816;53.582;10.096;2023-03-01T10:56:23;54370.75;;;-144.73;70.24
73551;BME280;61816;53.582;10.096;2023-03-01T10:59:03;54366.66;;;-144.73;70.67
73551;BME280;61816;53.582;10.096;2023-03-01T11:01:30;54378.97;;;-144.73;69.68
73551;BME280;61816;53.582;10.096;2023-03-01T11:04:11;54383.06;;;-144.73;69.43
73551;BME280;61816;53.582;10.096;2023-03-01T11:06:40;54374.84;;;-144.73;69.85
73551;BME280;61816;53.582;10.096;2023-03-01T11:09:23;54333.81;;;-144.73;68.99
73551;BME280;61816;53.582;10.096;2023-03-01T11:11:54;54358.44;;;-144.73;69.53
73551;BME280;61816;53.582;10.096;2023-03-01T11:14:22;54362.53;;;-144.73;67.99
73551;BME280;61816;53.582;10.096;2023-03-01T11:16:58;54366.66;;;-144.73;67.49
73551;BME280;61816;53.582;10.096;2023-03-01T11:19:24;54370.75;;;-144.73;67.83
73551;BME280;61816;53.582;10.096;2023-03-01T11:21:54;54407.69;;;-144.73;67.68
73551;BME280;61816;53.582;10.096;2023-03-01T11:24:26;54352.28;;;-144.73;68.15
73551;BME280;61816;53.582;10.096;2023-03-01T11:26:54;54372.81;;;-144.73;67.40
73551;BME280;61816;53.582;10.096;2023-03-01T11:29:41;54370.75;;;-144.73;67.74
73551;BME280;61816;53.582;10.096;2023-03-01T11:32:10;54374.84;;;-144.73;66.79
73551;BME280;61816;53.582;10.096;2023-03-01T11:34:48;54362.53;;;-144.73;64.17
73551;BME280;61816;53.582;10.096;2023-03-01T11:37:29;54346.13;;;-144.73;64.27
73551;BME280;61816;53.582;10.096;2023-03-01T11:40:10;54356.38;;;-144.73;65.45
73551;BME280;61816;53.582;10.096;2023-03-01T11:43:00;54383.06;;;-144.73;65.87
73551;BME280;61816;53.582;10.096;2023-03-01T11:45:53;54372.81;;;-144.73;63.46
73551;BME280;61816;53.582;10.096;2023-03-01T11:48:42;54378.97;;;-144.73;62.34
73551;BME280;61816;53.582;10.096;2023-03-01T11:51:24;54354.34;;;-144.73;62.56
73551;BME280;61816;53.582;10.096;2023-03-01T11:54:23;54362.53;;;-144.73;63.29
73551;BME280;61816;53.582;10.096;2023-03-01T11:56:57;54378.97;;;-144.73;62.46
73551;BME280;61816;53.582;10.096;2023-03-01T12:00:02;54370.75;;;-144.73;61.45
73551;BME280;61816;53.582;10.096;2023-03-01T12:05:46;54366.66;;;-144.73;60.58
73551;BME280;61816;53.582;10.096;2023-03-01T12:08:38;54354.34;;;-144.73;62.08
73551;BME280;61816;53.582;10.096;2023-03-01T12:14:30;54399.50;;;-144.73;63.29
73551;BME280;61816;53.582;10.096;2023-03-01T12:17:05;54352.28;;;-144.73;62.67
73551;BME280;61816;53.582;10.096;2023-03-01T12:19:56;54346.13;;;-144.73;61.13
73551;BME280;61816;53.582;10.096;2023-03-01T12:22:40;54407.69;;;-144.73;62.14
73551;BME280;61816;53.582;10.096;2023-03-01T12:25:30;54391.28;;;-144.73;60.63
73551;BME280;61816;53.582;10.096;2023-03-01T12:28:43;54344.06;;;-144.73;58.82
73551;BME280;61816;53.582;10.096;2023-03-01T12:34:24;54395.38;;;-144.73;58.13
73551;BME280;61816;53.582;10.096;2023-03-01T12:37:14;54356.38;;;-144.73;58.42
73551;BME280;61816;53.582;10.096;2023-03-01T12:42:53;54383.06;;;-144.73;60.93
73551;BME280;61816;53.582;10.096;2023-03-01T12:45:34;54317.38;;;-144.73;59.24
73551;BME280;61816;53.582;10.096;2023-03-01T12:50:42;54366.66;;;-144.73;58.53
73551;BME280;61816;53.582;10.096;2023-03-01T12:53:22;54366.66;;;-144.73;57.30
73551;BME280;61816;53.582;10.096;2023-03-01T12:55:48;54407.69;;;-144.73;57.88
73551;BME280;61816;53.582;10.096;2023-03-01T12:58:39;54368.69;;;-144.73;57.71
73551;BME280;61816;53.582;10.096;2023-03-01T13:04:02;54366.66;;;-144.73;56.02
73551;BME280;61816;53.582;10.096;2023-03-01T13:07:03;54342.03;;;-144.73;54.58
73551;BME280;61816;53.582;10.096;2023-03-01T13:09:39;54378.97;;;-144.73;56.74